createdAt,value
2018-08-04T00:04:23.823Z,1012.4
2018-08-04T00:09:36.785Z,1012.4
2018-08-04T00:14:49.540Z,1012.4
2018-08-04T00:25:15.204Z,1012.5
2018-08-04T00:30:28.228Z,1012.5
2018-08-04T00:35:40.843Z,1012.4
2018-08-04T00:40:53.681Z,1012.5
2018-08-04T00:46:06.466Z,1012.4
2018-08-04T00:51:19.341Z,1012.4
2018-08-04T00:56:32.138Z,1012.4
2018-08-04T01:01:44.991Z,1012.4
2018-08-04T01:06:57.927Z,1012.4
2018-08-04T01:12:10.625Z,1012.5
2018-08-04T01:17:23.526Z,1012.5
2018-08-04T01:22:36.298Z,1012.5
2018-08-04T01:27:49.277Z,1012.5
2018-08-04T01:33:02.271Z,1012.5
2018-08-04T01:38:14.776Z,1012.4
2018-08-04T01:43:27.733Z,1012.4
2018-08-04T01:48:40.484Z,1012.3
2018-08-04T01:53:53.504Z,1012.3
2018-08-04T01:59:06.122Z,1012.3
2018-08-04T02:04:19.039Z,1012.3
2018-08-04T02:09:31.771Z,1012.2
2018-08-04T02:14:44.640Z,1012.2
2018-08-04T02:19:57.565Z,1012.2
2018-08-04T02:25:10.297Z,1012.2
2018-08-04T02:30:23.137Z,1012.1
2018-08-04T02:35:35.924Z,1012.2
2018-08-04T02:46:01.588Z,1012.1
2018-08-04T02:51:14.600Z,1012.1
2018-08-04T02:56:27.273Z,1012
2018-08-04T03:01:40.194Z,1012
2018-08-04T03:12:05.746Z,1012
2018-08-04T03:17:18.942Z,1011.9
2018-08-04T03:22:31.417Z,1011.9
2018-08-04T03:32:57.052Z,1011.9
2018-08-04T03:38:10.018Z,1011.9
2018-08-04T03:53:48.403Z,1011.9
2018-08-04T03:59:01.276Z,1012
2018-08-04T04:14:39.713Z,1011.9
2018-08-04T04:19:52.737Z,1012
2018-08-04T04:30:18.208Z,1012.2
2018-08-04T04:40:43.906Z,1012.3
2018-08-04T04:51:09.643Z,1012.3
2018-08-04T04:56:22.553Z,1012.2
2018-08-04T05:01:35.269Z,1012.2
2018-08-04T05:17:13.674Z,1012.2
2018-08-04T05:22:26.983Z,1012.2
2018-08-04T05:27:39.447Z,1012.2
2018-08-04T05:38:05.062Z,1012.4
2018-08-04T05:43:17.841Z,1012.5
2018-08-04T05:53:43.522Z,1012.5
2018-08-04T05:58:56.496Z,1012.5
2018-08-04T06:04:09.132Z,1012.5
2018-08-04T06:09:22.086Z,1012.5
2018-08-04T06:14:34.819Z,1012.6
2018-08-04T06:19:47.673Z,1012.6
2018-08-04T06:25:00.497Z,1012.6
2018-08-04T06:35:26.279Z,1012.7
2018-08-04T06:40:38.974Z,1012.7
2018-08-04T06:51:04.714Z,1012.6
2018-08-04T06:56:17.620Z,1012.7
2018-08-04T07:01:30.313Z,1012.8
2018-08-04T07:06:43.153Z,1012.7
2018-08-04T07:17:08.793Z,1012.8
2018-08-04T07:22:21.673Z,1012.8
2018-08-04T07:27:34.459Z,1012.9
2018-08-04T07:38:00.121Z,1013
2018-08-04T07:43:12.929Z,1013
2018-08-04T07:48:25.773Z,1013
2018-08-04T08:04:04.291Z,1013
2018-08-04T08:09:17.080Z,1013
2018-08-04T08:19:43.575Z,1012.9
2018-08-04T08:24:55.580Z,1013
2018-08-04T08:30:08.736Z,1012.9
2018-08-04T08:35:21.325Z,1012.9
2018-08-04T08:40:34.092Z,1012.9
2018-08-04T08:45:46.892Z,1012.9
2018-08-04T08:50:59.885Z,1012.9
2018-08-04T09:01:25.394Z,1013
2018-08-04T09:06:38.275Z,1013
2018-08-04T09:11:51.060Z,1013
2018-08-04T09:17:03.882Z,1013
2018-08-04T09:22:16.990Z,1013
2018-08-04T09:27:29.634Z,1013.1
2018-08-04T09:32:42.440Z,1013.1
2018-08-04T09:43:08.083Z,1013.1
2018-08-04T09:48:20.898Z,1013
2018-08-04T09:53:33.708Z,1013
2018-08-04T09:58:46.619Z,1013
2018-08-04T10:03:59.360Z,1013
2018-08-04T10:09:12.218Z,1013.1
2018-08-04T10:14:25.081Z,1013
2018-08-04T10:19:37.864Z,1013
2018-08-04T10:24:50.655Z,1012.9
2018-08-04T10:30:03.505Z,1012.9
2018-08-04T10:35:16.447Z,1012.9
2018-08-04T10:40:29.188Z,1012.9
2018-08-04T10:45:42.222Z,1012.9
2018-08-04T10:50:54.863Z,1012.7
2018-08-04T10:56:07.952Z,1012.7
2018-08-04T11:01:20.720Z,1012.7
2018-08-04T11:06:33.368Z,1012.7
2018-08-04T11:11:46.465Z,1012.7
2018-08-04T11:16:59.102Z,1012.6
2018-08-04T11:22:12.361Z,1012.6
2018-08-04T11:27:24.607Z,1012.6
2018-08-04T11:32:37.473Z,1012.6
2018-08-04T11:37:52.906Z,1012.6
2018-08-04T11:43:04.537Z,1012.6
2018-08-04T11:48:15.964Z,1012.5
2018-08-04T11:53:28.754Z,1012.6
2018-08-04T11:58:41.599Z,1012.5
2018-08-04T12:03:54.404Z,1012.5
2018-08-04T12:09:07.263Z,1012.5
2018-08-04T12:14:20.118Z,1012.4
2018-08-04T12:19:32.916Z,1012.3
2018-08-04T12:29:58.630Z,1012.3
2018-08-04T12:35:11.545Z,1012.2
2018-08-04T12:40:24.238Z,1012.2
2018-08-04T12:45:37.254Z,1012.2
2018-08-04T12:50:49.891Z,1012.2
2018-08-04T12:56:02.698Z,1012.1
2018-08-04T13:01:15.576Z,1012.1
2018-08-04T13:11:41.254Z,1012.1
2018-08-04T13:16:54.017Z,1012.1
2018-08-04T13:22:06.827Z,1012.1
2018-08-04T13:27:19.654Z,1012.1
2018-08-04T13:32:32.534Z,1012
2018-08-04T13:37:45.308Z,1011.8
2018-08-04T13:42:58.334Z,1011.8
2018-08-04T13:48:10.970Z,1011.8
2018-08-04T13:53:23.836Z,1011.8
2018-08-04T13:58:36.642Z,1011.8
2018-08-04T14:03:49.460Z,1011.8
2018-08-04T14:14:15.171Z,1011.7
2018-08-04T14:19:28.004Z,1011.7
2018-08-04T14:24:40.799Z,1011.8
2018-08-04T14:29:53.795Z,1011.7
2018-08-04T14:35:06.440Z,1011.7
2018-08-04T14:40:19.272Z,1011.7
2018-08-04T14:50:44.906Z,1011.6
2018-08-04T14:55:57.771Z,1011.6
2018-08-04T15:01:10.625Z,1011.7
2018-08-04T15:06:23.461Z,1011.7
2018-08-04T15:11:36.240Z,1011.6
2018-08-04T15:16:49.055Z,1011.6
2018-08-04T15:22:01.967Z,1011.4
2018-08-04T15:27:14.771Z,1011.5
2018-08-04T15:32:27.712Z,1011.5
2018-08-04T15:37:40.650Z,1011.5
2018-08-04T15:42:53.236Z,1011.4
2018-08-04T15:48:06.029Z,1011.4
2018-08-04T15:53:18.860Z,1011.4
2018-08-04T15:58:31.686Z,1011.4
2018-08-04T16:03:44.763Z,1011.4
2018-08-04T16:08:57.367Z,1011.5
2018-08-04T16:14:10.223Z,1011.4
2018-08-04T16:19:23.007Z,1011.5
2018-08-04T16:24:35.827Z,1011.5
2018-08-04T16:29:48.650Z,1011.5
2018-08-04T16:35:01.506Z,1011.5
2018-08-04T16:40:14.334Z,1011.5
2018-08-04T16:45:27.363Z,1011.6
2018-08-04T16:50:40.058Z,1011.6
2018-08-04T16:55:52.797Z,1011.8
2018-08-04T17:01:05.623Z,1011.8
2018-08-04T17:06:18.454Z,1011.9
2018-08-04T17:11:31.285Z,1011.9
2018-08-04T17:16:44.143Z,1011.9
2018-08-04T17:21:56.945Z,1011.9
2018-08-04T17:27:09.786Z,1012
2018-08-04T17:32:22.673Z,1012
2018-08-04T17:37:35.581Z,1012
2018-08-04T17:42:48.263Z,1012
2018-08-04T17:48:01.189Z,1012
2018-08-04T17:53:13.942Z,1012
2018-08-04T17:58:26.745Z,1012.1
2018-08-04T18:08:52.429Z,1012.2
2018-08-04T18:14:05.252Z,1012.3
2018-08-04T18:19:18.077Z,1012.3
2018-08-04T18:24:30.963Z,1012.2
2018-08-04T18:29:43.825Z,1012.3
2018-08-04T18:34:56.728Z,1012.3
2018-08-04T18:40:09.429Z,1012.4
2018-08-04T18:45:22.539Z,1012.5
2018-08-04T18:50:35.111Z,1012.6
2018-08-04T18:55:47.844Z,1012.7
2018-08-04T19:01:00.683Z,1012.7
2018-08-04T19:11:26.528Z,1012.9
2018-08-04T19:16:39.159Z,1012.9
2018-08-04T19:21:52.004Z,1013
2018-08-04T19:27:04.819Z,1012.9
2018-08-04T19:32:17.709Z,1013
2018-08-04T19:37:30.761Z,1013.1
2018-08-04T19:42:43.481Z,1013.2
2018-08-04T19:47:56.177Z,1013.3
2018-08-04T19:53:09.106Z,1013.3
2018-08-04T19:58:21.805Z,1013.4
2018-08-04T20:03:34.629Z,1013.5
2018-08-04T20:08:47.502Z,1013.5
2018-08-04T20:14:00.580Z,1013.5
2018-08-04T20:19:13.302Z,1013.5
2018-08-04T20:24:26.090Z,1013.6
2018-08-04T20:29:38.791Z,1013.6
2018-08-04T20:34:51.617Z,1013.7
2018-08-04T20:40:04.465Z,1013.7
2018-08-04T20:45:17.361Z,1013.7
2018-08-04T20:50:30.135Z,1013.8
2018-08-04T20:55:43.064Z,1013.9
2018-08-04T21:00:55.774Z,1013.9
2018-08-04T21:06:08.971Z,1013.9
2018-08-04T21:11:21.488Z,1014
2018-08-04T21:16:34.289Z,1013.9
2018-08-04T21:21:47.088Z,1014
2018-08-04T21:27:00.193Z,1014
2018-08-04T21:32:12.764Z,1014
2018-08-04T21:37:26.105Z,1014
2018-08-04T21:42:38.468Z,1014.1
2018-08-04T21:47:51.255Z,1014.2
2018-08-04T21:53:04.078Z,1014.1
2018-08-04T21:58:16.906Z,1014.1
2018-08-04T22:03:29.833Z,1014.2
2018-08-04T22:08:42.621Z,1014.2
2018-08-04T22:13:55.432Z,1014.2
2018-08-04T22:19:08.269Z,1014.1
2018-08-04T22:24:21.066Z,1014.2
2018-08-04T22:29:33.890Z,1014.2
2018-08-04T22:34:46.725Z,1014.2
2018-08-04T22:39:59.611Z,1014.2
2018-08-04T22:45:12.420Z,1014.2
2018-08-04T22:50:25.799Z,1014.2
2018-08-04T22:55:38.101Z,1014.3
2018-08-04T23:00:50.884Z,1014.3
2018-08-04T23:06:03.729Z,1014.3
2018-08-04T23:11:16.589Z,1014.3
2018-08-04T23:16:29.390Z,1014.4
2018-08-04T23:21:42.203Z,1014.4
2018-08-04T23:26:55.043Z,1014.4
2018-08-04T23:32:07.897Z,1014.5
2018-08-04T23:37:20.724Z,1014.5
2018-08-04T23:42:33.569Z,1014.5
2018-08-04T23:47:46.367Z,1014.5
2018-08-04T23:52:59.183Z,1014.5
2018-08-04T23:58:12.059Z,1014.5
